sensor_id;sensor_type;location;lat;lon;timestamp;pressure;altitude;pressure_sealevel;temperature;humidity
70546;BME280;58098;51.680;5.134;2023-03-05T00:01:31;102396.31;;;4.07;100.00
70546;BME280;58098;51.680;5.134;2023-03-05T00:03:58;102381.75;;;4.05;100.00
70546;BME280;58098;51.680;5.134;2023-03-05T00:06:26;102384.19;;;4.09;100.00
70546;BME280;58098;51.680;5.134;2023-03-05T00:08:52;102374.72;;;4.10;100.00
70546;BME280;58098;51.680;5.134;2023-03-05T00:11:18;102393.47;;;4.16;100.00
70546;BME280;58098;51.680;5.134;2023-03-05T00:13:44;102371.50;;;4.01;100.00
70546;BME280;58098;51.680;5.134;2023-03-05T00:16:12;102390.13;;;4.13;100.00
70546;BME280;58098;51.680;5.134;2023-03-05T00:18:37;102376.66;;;4.01;100.00
70546;BME280;58098;51.680;5.134;2023-03-05T00:21:04;102363.84;;;3.98;100.00
70546;BME280;58098;51.680;5.134;2023-03-05T00:23:29;102362.13;;;3.99;100.00
70546;BME280;58098;51.680;5.134;2023-03-05T00:25:55;102344.91;;;3.98;100.00
70546;BME280;58098;51.680;5.134;2023-03-05T00:28:20;102380.69;;;4.12;100.00
70546;BME280;58098;51.680;5.134;2023-03-05T00:30:46;102364.94;;;3.90;100.00
70546;BME280;58098;51.680;5.134;2023-03-05T00:33:12;102365.22;;;3.79;100.00
70546;BME280;58098;51.680;5.134;2023-03-05T00:35:42;102364.13;;;3.88;100.00
70546;BME280;58098;51.680;5.134;2023-03-05T00:38:09;102357.50;;;3.78;100.00
70546;BME280;58098;51.680;5.134;2023-03-05T00:40:39;102375.25;;;3.90;100.00
70546;BME280;58098;51.680;5.134;2023-03-05T00:43:05;102368.88;;;3.72;100.00
70546;BME280;58098;51.680;5.134;2023-03-05T00:45:31;102348.75;;;3.51;100.00
70546;BME280;58098;51.680;5.134;2023-03-05T00:47:58;102363.31;;;3.54;100.00
70546;BME280;58098;51.680;5.134;2023-03-05T00:50:23;102360.84;;;3.49;100.00
70546;BME280;58098;51.680;5.134;2023-03-05T00:52:49;102349.38;;;3.27;100.00
70546;BME280;58098;51.680;5.134;2023-03-05T00:55:14;102343.53;;;3.20;100.00
70546;BME280;58098;51.680;5.134;2023-03-05T00:57:39;102363.97;;;3.26;100.00
70546;BME280;58098;51.680;5.134;2023-03-05T01:00:05;102349.63;;;3.16;100.00
70546;BME280;58098;51.680;5.134;2023-03-05T01:02:31;102337.81;;;3.08;100.00
70546;BME280;58098;51.680;5.134;2023-03-05T01:04:57;102358.09;;;3.21;100.00
70546;BME280;58098;51.680;5.134;2023-03-05T01:07:22;102340.09;;;3.20;100.00
70546;BME280;58098;51.680;5.134;2023-03-05T01:09:47;102346.78;;;3.28;100.00
70546;BME280;58098;51.680;5.134;2023-03-05T01:12:13;102328.03;;;3.20;100.00
70546;BME280;58098;51.680;5.134;2023-03-05T01:14:38;102327.13;;;3.23;100.00
70546;BME280;58098;51.680;5.134;2023-03-05T01:17:03;102331.19;;;3.31;100.00
70546;BME280;58098;51.680;5.134;2023-03-05T01:19:29;102330.28;;;3.34;100.00
70546;BME280;58098;51.680;5.134;2023-03-05T01:21:54;102328.59;;;3.33;100.00
70546;BME280;58098;51.680;5.134;2023-03-05T01:24:20;102313.31;;;3.25;100.00
70546;BME280;58098;51.680;5.134;2023-03-05T01:26:46;102322.50;;;3.36;100.00
70546;BME280;58098;51.680;5.134;2023-03-05T01:29:11;102319.03;;;3.37;100.00
70546;BME280;58098;51.680;5.134;2023-03-05T01:31:37;102308.72;;;3.37;100.00
70546;BME280;58098;51.680;5.134;2023-03-05T01:34:02;102309.69;;;3.32;100.00
70546;BME280;58098;51.680;5.134;2023-03-05T01:36:27;102310.47;;;3.34;100.00
70546;BME280;58098;51.680;5.134;2023-03-05T01:38:53;102302.00;;;3.29;100.00
70546;BME280;58098;51.680;5.134;2023-03-05T01:41:19;102308.78;;;3.33;100.00
70546;BME280;58098;51.680;5.134;2023-03-05T01:43:45;102288.38;;;3.24;100.00
70546;BME280;58098;51.680;5.134;2023-03-05T01:49:14;102290.91;;;3.27;100.00
70546;BME280;58098;51.680;5.134;2023-03-05T01:54:18;102282.16;;;3.33;100.00
70546;BME280;58098;51.680;5.134;2023-03-05T01:56:45;102261.72;;;3.25;100.00
70546;BME280;58098;51.680;5.134;2023-03-05T01:59:13;102265.97;;;3.26;100.00
70546;BME280;58098;51.680;5.134;2023-03-05T02:01:42;102271.97;;;3.28;100.00
70546;BME280;58098;51.680;5.134;2023-03-05T02:04:10;102272.91;;;3.26;100.00
70546;BME280;58098;51.680;5.134;2023-03-05T02:06:40;102262.59;;;3.24;100.00
70546;BME280;58098;51.680;5.134;2023-03-05T02:09:06;102264.44;;;3.19;100.00
70546;BME280;58098;51.680;5.134;2023-03-05T02:11:32;102248.41;;;3.08;100.00
70546;BME280;58098;51.680;5.134;2023-03-05T02:13:58;102255.16;;;3.14;100.00
70546;BME280;58098;51.680;5.134;2023-03-05T02:16:24;102245.72;;;3.13;100.00
70546;BME280;58098;51.680;5.134;2023-03-05T02:18:50;102235.66;;;3.04;100.00
70546;BME280;58098;51.680;5.134;2023-03-05T02:21:25;102239.88;;;3.06;100.00
70546;BME280;58098;51.680;5.134;2023-03-05T02:23:52;102241.44;;;3.12;100.00
70546;BME280;58098;51.680;5.134;2023-03-05T02:26:18;102234.44;;;3.17;100.00
70546;BME280;58098;51.680;5.134;2023-03-05T02:28:46;102228.66;;;3.07;100.00
70546;BME280;58098;51.680;5.134;2023-03-05T02:31:16;102229.47;;;3.09;100.00
70546;BME280;58098;51.680;5.134;2023-03-05T02:33:42;102208.41;;;2.92;100.00
70546;BME280;58098;51.680;5.134;2023-03-05T02:36:08;102218.59;;;2.98;100.00
70546;BME280;58098;51.680;5.134;2023-03-05T02:38:33;102204.31;;;2.85;100.00
70546;BME280;58098;51.680;5.134;2023-03-05T02:40:58;102217.13;;;2.88;100.00
70546;BME280;58098;51.680;5.134;2023-03-05T02:43:24;102207.78;;;2.84;100.00
70546;BME280;58098;51.680;5.134;2023-03-05T02:45:50;102211.16;;;2.86;100.00
70546;BME280;58098;51.680;5.134;2023-03-05T02:48:15;102207.81;;;2.83;100.00
70546;BME280;58098;51.680;5.134;2023-03-05T02:50:40;102195.03;;;2.78;100.00
70546;BME280;58098;51.680;5.134;2023-03-05T02:53:07;102200.00;;;2.86;100.00
70546;BME280;58098;51.680;5.134;2023-03-05T02:55:33;102198.28;;;2.86;100.00
70546;BME280;58098;51.680;5.134;2023-03-05T02:57:59;102189.00;;;2.79;100.00
70546;BME280;58098;51.680;5.134;2023-03-05T03:00:24;102190.56;;;2.86;100.00
70546;BME280;58098;51.680;5.134;2023-03-05T03:02:50;102179.47;;;2.83;100.00
70546;BME280;58098;51.680;5.134;2023-03-05T03:05:16;102163.25;;;2.79;100.00
70546;BME280;58098;51.680;5.134;2023-03-05T03:07:41;102173.38;;;2.85;100.00
70546;BME280;58098;51.680;5.134;2023-03-05T03:10:07;102177.59;;;2.89;100.00
70546;BME280;58098;51.680;5.134;2023-03-05T03:12:40;102165.56;;;2.88;100.00
70546;BME280;58098;51.680;5.134;2023-03-05T03:15:07;102177.41;;;2.95;100.00
70546;BME280;58098;51.680;5.134;2023-03-05T03:17:35;102182.50;;;2.98;100.00
70546;BME280;58098;51.680;5.134;2023-03-05T03:20:02;102165.50;;;2.91;100.00
70546;BME280;58098;51.680;5.134;2023-03-05T03:22:28;102179.81;;;3.03;100.00
70546;BME280;58098;51.680;5.134;2023-03-05T03:24:53;102150.03;;;2.91;100.00
70546;BME280;58098;51.680;5.134;2023-03-05T03:27:20;102154.28;;;2.92;100.00
70546;BME280;58098;51.680;5.134;2023-03-05T03:29:45;102166.16;;;2.99;100.00
70546;BME280;58098;51.680;5.134;2023-03-05T03:32:10;102148.41;;;2.87;100.00
70546;BME280;58098;51.680;5.134;2023-03-05T03:34:36;102156.88;;;2.92;100.00
70546;BME280;58098;51.680;5.134;2023-03-05T03:37:01;102155.13;;;2.94;100.00
70546;BME280;58098;51.680;5.134;2023-03-05T03:39:26;102149.88;;;2.97;100.00
70546;BME280;58098;51.680;5.134;2023-03-05T03:41:52;102140.53;;;2.93;100.00
70546;BME280;58098;51.680;5.134;2023-03-05T03:44:19;102125.22;;;2.87;100.00
70546;BME280;58098;51.680;5.134;2023-03-05T03:46:46;102135.31;;;2.95;100.00
70546;BME280;58098;51.680;5.134;2023-03-05T03:51:41;102126.13;;;2.86;100.00
70546;BME280;58098;51.680;5.134;2023-03-05T03:54:06;102136.25;;;2.92;100.00
70546;BME280;58098;51.680;5.134;2023-03-05T03:56:32;102135.44;;;2.92;100.00
70546;BME280;58098;51.680;5.134;2023-03-05T03:58:57;102132.00;;;2.91;100.00
70546;BME280;58098;51.680;5.134;2023-03-05T04:01:22;102115.13;;;2.80;100.00
70546;BME280;58098;51.680;5.134;2023-03-05T04:03:48;102115.88;;;2.83;100.00
70546;BME280;58098;51.680;5.134;2023-03-05T04:06:13;102127.66;;;2.93;100.00
70546;BME280;58098;51.680;5.134;2023-03-05T04:08:39;102130.16;;;2.95;100.00
70546;BME280;58098;51.680;5.134;2023-03-05T04:11:04;102120.63;;;2.98;100.00
70546;BME280;58098;51.680;5.134;2023-03-05T04:13:30;102103.59;;;2.93;100.00
70546;BME280;58098;51.680;5.134;2023-03-05T04:15:55;102119.75;;;2.99;100.00
70546;BME280;58098;51.680;5.134;2023-03-05T04:18:21;102123.03;;;3.04;100.00
70546;BME280;58098;51.680;5.134;2023-03-05T04:20:46;102103.47;;;2.97;100.00
70546;BME280;58098;51.680;5.134;2023-03-05T04:23:12;102116.06;;;3.08;100.00
70546;BME280;58098;51.680;5.134;2023-03-05T04:25:37;102110.00;;;3.10;100.00
70546;BME280;58098;51.680;5.134;2023-03-05T04:28:03;102111.78;;;3.08;100.00
70546;BME280;58098;51.680;5.134;2023-03-05T04:30:28;102092.94;;;3.05;100.00
70546;BME280;58098;51.680;5.134;2023-03-05T04:32:55;102097.94;;;3.11;100.00
70546;BME280;58098;51.680;5.134;2023-03-05T04:35:20;102071.53;;;3.03;100.00
70546;BME280;58098;51.680;5.134;2023-03-05T04:37:46;102095.41;;;3.09;100.00
70546;BME280;58098;51.680;5.134;2023-03-05T04:40:11;102074.16;;;3.01;100.00
70546;BME280;58098;51.680;5.134;2023-03-05T04:42:37;102091.88;;;3.13;100.00
70546;BME280;58098;51.680;5.134;2023-03-05T04:45:03;102092.66;;;3.15;100.00
70546;BME280;58098;51.680;5.134;2023-03-05T04:47:29;102082.44;;;3.12;100.00
70546;BME280;58098;51.680;5.134;2023-03-05T04:49:54;102086.66;;;3.15;100.00
70546;BME280;58098;51.680;5.134;2023-03-05T04:52:19;102065.34;;;3.08;100.00
70546;BME280;58098;51.680;5.134;2023-03-05T04:54:45;102083.13;;;3.17;100.00
70546;BME280;58098;51.680;5.134;2023-03-05T04:57:11;102061.94;;;3.08;100.00
70546;BME280;58098;51.680;5.134;2023-03-05T04:59:37;102065.28;;;3.11;100.00
70546;BME280;58098;51.680;5.134;2023-03-05T05:02:03;102046.41;;;3.09;100.00
70546;BME280;58098;51.680;5.134;2023-03-05T05:04:29;102071.03;;;3.19;100.00
70546;BME280;58098;51.680;5.134;2023-03-05T05:06:57;102052.13;;;3.19;100.00
70546;BME280;58098;51.680;5.134;2023-03-05T05:09:24;102050.34;;;3.22;100.00
70546;BME280;58098;51.680;5.134;2023-03-05T05:11:50;102055.50;;;3.22;100.00
70546;BME280;58098;51.680;5.134;2023-03-05T05:14:15;102052.06;;;3.22;100.00
70546;BME280;58098;51.680;5.134;2023-03-05T05:16:41;102046.75;;;3.26;100.00
70546;BME280;58098;51.680;5.134;2023-03-05T05:19:06;102050.16;;;3.28;100.00
70546;BME280;58098;51.680;5.134;2023-03-05T05:21:33;102041.81;;;3.20;100.00
70546;BME280;58098;51.680;5.134;2023-03-05T05:23:58;102046.59;;;3.32;100.00
70546;BME280;58098;51.680;5.134;2023-03-05T05:26:24;102047.47;;;3.31;100.00
70546;BME280;58098;51.680;5.134;2023-03-05T05:28:49;102039.84;;;3.28;100.00
70546;BME280;58098;51.680;5.134;2023-03-05T05:31:15;102044.75;;;3.36;100.00
70546;BME280;58098;51.680;5.134;2023-03-05T05:33:41;102050.81;;;3.35;100.00
70546;BME280;58098;51.680;5.134;2023-03-05T05:36:09;102036.41;;;3.28;100.00
70546;BME280;58098;51.680;5.134;2023-03-05T05:38:35;102027.13;;;3.22;100.00
70546;BME280;58098;51.680;5.134;2023-03-05T05:41:03;102040.00;;;3.22;100.00
70546;BME280;58098;51.680;5.134;2023-03-05T05:43:29;102050.16;;;3.28;100.00
70546;BME280;58098;51.680;5.134;2023-03-05T05:45:58;102029.06;;;3.14;100.00
70546;BME280;58098;51.680;5.134;2023-03-05T05:48:23;102032.63;;;3.10;100.00
70546;BME280;58098;51.680;5.134;2023-03-05T05:50:49;102052.28;;;3.14;100.00
70546;BME280;58098;51.680;5.134;2023-03-05T05:53:14;102032.13;;;2.98;100.00
70546;BME280;58098;51.680;5.134;2023-03-05T05:55:39;102035.50;;;3.00;100.00
70546;BME280;58098;51.680;5.134;2023-03-05T05:58:05;102044.72;;;3.08;100.00
70546;BME280;58098;51.680;5.134;2023-03-05T06:00:30;102043.97;;;3.05;100.00
70546;BME280;58098;51.680;5.134;2023-03-05T06:02:56;102039.84;;;2.99;100.00
70546;BME280;58098;51.680;5.134;2023-03-05T06:05:21;102034.84;;;2.93;100.00
70546;BME280;58098;51.680;5.134;2023-03-05T06:07:46;102028.84;;;2.93;100.00
70546;BME280;58098;51.680;5.134;2023-03-05T06:10:12;102017.94;;;2.83;100.00
70546;BME280;58098;51.680;5.134;2023-03-05T06:12:37;102041.81;;;2.90;100.00
70546;BME280;58098;51.680;5.134;2023-03-05T06:15:03;102025.66;;;2.85;100.00
70546;BME280;58098;51.680;5.134;2023-03-05T06:17:29;102022.38;;;2.80;100.00
70546;BME280;58098;51.680;5.134;2023-03-05T06:19:54;102024.88;;;2.81;100.00
70546;BME280;58098;51.680;5.134;2023-03-05T06:22:20;102024.97;;;2.78;100.00
70546;BME280;58098;51.680;5.134;2023-03-05T06:24:45;102017.44;;;2.71;100.00
70546;BME280;58098;51.680;5.134;2023-03-05T06:27:10;102025.94;;;2.74;100.00
70546;BME280;58098;51.680;5.134;2023-03-05T06:29:36;102029.41;;;2.73;100.00
70546;BME280;58098;51.680;5.134;2023-03-05T06:32:01;102033.69;;;2.73;100.00
70546;BME280;58098;51.680;5.134;2023-03-05T06:34:26;102029.31;;;2.76;100.00
70546;BME280;58098;51.680;5.134;2023-03-05T06:36:51;102027.53;;;2.78;100.00
70546;BME280;58098;51.680;5.134;2023-03-05T06:39:17;102013.06;;;2.74;100.00
70546;BME280;58098;51.680;5.134;2023-03-05T06:41:42;102028.25;;;2.83;100.00
70546;BME280;58098;51.680;5.134;2023-03-05T06:44:08;102013.72;;;2.81;100.00
70546;BME280;58098;51.680;5.134;2023-03-05T06:46:35;102020.31;;;2.91;100.00
70546;BME280;58098;51.680;5.134;2023-03-05T06:49:02;102009.22;;;2.89;100.00
70546;BME280;58098;51.680;5.134;2023-03-05T06:51:30;102022.59;;;3.01;100.00
70546;BME280;58098;51.680;5.134;2023-03-05T06:53:59;102017.44;;;3.01;100.00
70546;BME280;58098;51.680;5.134;2023-03-05T06:56:25;102014.72;;;3.06;100.00
70546;BME280;58098;51.680;5.134;2023-03-05T06:58:51;102014.53;;;3.12;100.00
70546;BME280;58098;51.680;5.134;2023-03-05T07:01:17;102014.59;;;3.10;100.00
70546;BME280;58098;51.680;5.134;2023-03-05T07:03:43;102007.72;;;3.09;100.00
70546;BME280;58098;51.680;5.134;2023-03-05T07:06:11;102005.91;;;3.13;100.00
70546;BME280;58098;51.680;5.134;2023-03-05T07:08:37;102002.41;;;3.15;100.00
70546;BME280;58098;51.680;5.134;2023-03-05T07:11:08;102020.09;;;3.27;100.00
70546;BME280;58098;51.680;5.134;2023-03-05T07:13:34;102026.75;;;3.34;100.00
70546;BME280;58098;51.680;5.134;2023-03-05T07:16:04;102012.31;;;3.29;100.00
70546;BME280;58098;51.680;5.134;2023-03-05T07:18:29;102012.88;;;3.39;100.00
70546;BME280;58098;51.680;5.134;2023-03-05T07:20:54;101999.09;;;3.40;100.00
70546;BME280;58098;51.680;5.134;2023-03-05T07:23:20;101996.22;;;3.49;100.00
70546;BME280;58098;51.680;5.134;2023-03-05T07:25:45;102013.91;;;3.61;100.00
70546;BME280;58098;51.680;5.134;2023-03-05T07:28:10;102010.22;;;3.68;100.00
70546;BME280;58098;51.680;5.134;2023-03-05T07:30:36;102012.81;;;3.68;100.00
70546;BME280;58098;51.680;5.134;2023-03-05T07:33:01;101999.25;;;3.61;100.00
70546;BME280;58098;51.680;5.134;2023-03-05T07:35:27;102012.69;;;3.72;100.00
70546;BME280;58098;51.680;5.134;2023-03-05T07:37:52;101991.28;;;3.69;100.00
70546;BME280;58098;51.680;5.134;2023-03-05T07:40:19;101991.75;;;3.81;100.00
70546;BME280;58098;51.680;5.134;2023-03-05T07:42:46;101993.16;;;3.90;100.00
70546;BME280;58098;51.680;5.134;2023-03-05T07:45:11;101980.06;;;3.96;100.00
70546;BME280;58098;51.680;5.134;2023-03-05T07:47:36;101990.16;;;4.04;100.00
70546;BME280;58098;51.680;5.134;2023-03-05T07:50:02;101985.66;;;4.09;100.00
70546;BME280;58098;51.680;5.134;2023-03-05T07:52:28;101978.75;;;4.09;100.00
70546;BME280;58098;51.680;5.134;2023-03-05T07:54:53;101990.41;;;4.21;100.00
70546;BME280;58098;51.680;5.134;2023-03-05T07:57:18;101983.50;;;4.21;100.00
70546;BME280;58098;51.680;5.134;2023-03-05T07:59:44;101986.81;;;4.25;100.00
70546;BME280;58098;51.680;5.134;2023-03-05T08:02:11;101991.25;;;4.21;100.00
70546;BME280;58098;51.680;5.134;2023-03-05T08:04:37;101992.09;;;4.22;100.00
70546;BME280;58098;51.680;5.134;2023-03-05T08:07:03;101976.28;;;4.06;100.00
70546;BME280;58098;51.680;5.134;2023-03-05T08:09:28;101995.78;;;4.15;100.00
70546;BME280;58098;51.680;5.134;2023-03-05T08:11:54;101967.84;;;4.01;100.00
70546;BME280;58098;51.680;5.134;2023-03-05T08:14:19;101982.50;;;4.00;100.00
70546;BME280;58098;51.680;5.134;2023-03-05T08:16:45;101988.59;;;3.98;100.00
70546;BME280;58098;51.680;5.134;2023-03-05T08:19:11;101983.94;;;3.83;100.00
70546;BME280;58098;51.680;5.134;2023-03-05T08:21:36;101977.97;;;3.81;100.00
70546;BME280;58098;51.680;5.134;2023-03-05T08:24:04;101966.81;;;3.80;100.00
70546;BME280;58098;51.680;5.134;2023-03-05T08:26:32;101972.13;;;3.76;100.00
70546;BME280;58098;51.680;5.134;2023-03-05T08:28:58;101965.13;;;3.79;100.00
70546;BME280;58098;51.680;5.134;2023-03-05T08:31:25;101974.78;;;3.74;100.00
70546;BME280;58098;51.680;5.134;2023-03-05T08:33:53;101947.59;;;3.63;100.00
70546;BME280;58098;51.680;5.134;2023-03-05T08:36:18;101950.75;;;3.72;100.00
70546;BME280;58098;51.680;5.134;2023-03-05T08:38:44;101956.22;;;3.88;100.00
70546;BME280;58098;51.680;5.134;2023-03-05T08:41:11;101942.44;;;3.89;100.00
70546;BME280;58098;51.680;5.134;2023-03-05T08:43:37;101951.03;;;4.14;100.00
70546;BME280;58098;51.680;5.134;2023-03-05T08:46:02;101954.66;;;4.33;100.00
70546;BME280;58098;51.680;5.134;2023-03-05T08:48:28;101941.97;;;4.50;100.00
70546;BME280;58098;51.680;5.134;2023-03-05T08:50:54;101933.66;;;4.65;100.00
70546;BME280;58098;51.680;5.134;2023-03-05T08:53:20;101951.81;;;4.87;100.00
70546;BME280;58098;51.680;5.134;2023-03-05T08:55:56;101932.63;;;4.93;100.00
70546;BME280;58098;51.680;5.134;2023-03-05T08:58:22;101933.19;;;5.01;100.00
70546;BME280;58098;51.680;5.134;2023-03-05T09:00:47;101936.56;;;5.03;100.00
70546;BME280;58098;51.680;5.134;2023-03-05T09:03:13;101942.16;;;5.14;100.00
70546;BME280;58098;51.680;5.134;2023-03-05T09:05:38;101934.16;;;5.20;100.00
70546;BME280;58098;51.680;5.134;2023-03-05T09:08:07;101931.47;;;5.23;100.00
70546;BME280;58098;51.680;5.134;2023-03-05T09:10:32;101925.66;;;5.16;100.00
70546;BME280;58098;51.680;5.134;2023-03-05T09:12:57;101919.53;;;5.19;100.00
70546;BME280;58098;51.680;5.134;2023-03-05T09:15:23;101917.72;;;5.21;100.00
70546;BME280;58098;51.680;5.134;2023-03-05T09:17:48;101928.31;;;5.37;100.00
70546;BME280;58098;51.680;5.134;2023-03-05T09:20:14;101934.22;;;5.40;100.00
70546;BME280;58098;51.680;5.134;2023-03-05T09:22:40;101923.88;;;5.40;100.00
70546;BME280;58098;51.680;5.134;2023-03-05T09:25:05;101924.78;;;5.39;100.00
70546;BME280;58098;51.680;5.134;2023-03-05T09:27:33;101907.69;;;5.35;100.00
70546;BME280;58098;51.680;5.134;2023-03-05T09:29:59;101924.88;;;5.36;100.00
70546;BME280;58098;51.680;5.134;2023-03-05T09:32:24;101921.16;;;5.21;100.00
70546;BME280;58098;51.680;5.134;2023-03-05T09:34:50;101905.75;;;4.97;100.00
70546;BME280;58098;51.680;5.134;2023-03-05T09:37:15;101917.31;;;4.88;100.00
70546;BME280;58098;51.680;5.134;2023-03-05T09:39:40;101911.63;;;4.79;100.00
70546;BME280;58098;51.680;5.134;2023-03-05T09:42:28;101921.75;;;4.61;100.00
70546;BME280;58098;51.680;5.134;2023-03-05T09:47:52;101907.25;;;4.34;100.00
70546;BME280;58098;51.680;5.134;2023-03-05T09:52:53;101916.03;;;4.30;100.00
70546;BME280;58098;51.680;5.134;2023-03-05T09:55:24;101911.31;;;4.41;100.00
70546;BME280;58098;51.680;5.134;2023-03-05T09:57:53;101917.31;;;4.65;100.00
70546;BME280;58098;51.680;5.134;2023-03-05T10:02:52;101906.13;;;4.88;100.00
70546;BME280;58098;51.680;5.134;2023-03-05T10:05:46;101895.09;;;4.83;100.00
70546;BME280;58098;51.680;5.134;2023-03-05T10:08:18;101892.03;;;4.95;100.00
70546;BME280;58098;51.680;5.134;2023-03-05T10:10:48;101898.19;;;5.14;100.00
70546;BME280;58098;51.680;5.134;2023-03-05T10:13:20;101887.09;;;5.32;100.00
70546;BME280;58098;51.680;5.134;2023-03-05T10:16:05;101898.94;;;5.59;100.00
70546;BME280;58098;51.680;5.134;2023-03-05T10:21:14;101896.03;;;5.67;100.00
70546;BME280;58098;51.680;5.134;2023-03-05T10:23:58;101868.00;;;5.76;100.00
70546;BME280;58098;51.680;5.134;2023-03-05T10:32:31;101871.63;;;6.31;100.00
70546;BME280;58098;51.680;5.134;2023-03-05T10:45:42;101846.19;;;6.21;100.00
70546;BME280;58098;51.680;5.134;2023-03-05T10:50:46;101821.28;;;6.37;100.00
70546;BME280;58098;51.680;5.134;2023-03-05T10:53:25;101844.72;;;6.52;100.00
70546;BME280;58098;51.680;5.134;2023-03-05T10:55:52;101809.97;;;6.38;100.00
70546;BME280;58098;51.680;5.134;2023-03-05T10:58:21;101829.97;;;6.54;100.00
70546;BME280;58098;51.680;5.134;2023-03-05T11:06:41;101831.66;;;6.91;100.00
70546;BME280;58098;51.680;5.134;2023-03-05T11:09:23;101814.28;;;6.93;100.00
70546;BME280;58098;51.680;5.134;2023-03-05T11:12:17;101818.47;;;6.96;100.00
70546;BME280;58098;51.680;5.134;2023-03-05T11:15:00;101828.47;;;6.86;100.00
70546;BME280;58098;51.680;5.134;2023-03-05T11:23:18;101820.69;;;7.03;100.00
70546;BME280;58098;51.680;5.134;2023-03-05T11:25:54;101816.44;;;7.19;100.00
70546;BME280;58098;51.680;5.134;2023-03-05T11:28:55;101813.75;;;7.21;100.00
70546;BME280;58098;51.680;5.134;2023-03-05T11:31:28;101792.94;;;7.05;100.00
70546;BME280;58098;51.680;5.134;2023-03-05T11:34:03;101804.44;;;7.00;100.00
70546;BME280;58098;51.680;5.134;2023-03-05T11:36:40;101795.75;;;7.01;100.00
70546;BME280;58098;51.680;5.134;2023-03-05T11:44:29;101790.00;;;6.94;100.00
70546;BME280;58098;51.680;5.134;2023-03-05T11:49:45;101777.13;;;6.57;100.00
70546;BME280;58098;51.680;5.134;2023-03-05T11:52:19;101791.81;;;6.75;100.00
70546;BME280;58098;51.680;5.134;2023-03-05T11:57:22;101775.66;;;7.04;100.00
70546;BME280;58098;51.680;5.134;2023-03-05T11:59:48;101762.78;;;7.03;100.00
70546;BME280;58098;51.680;5.134;2023-03-05T12:02:26;101753.06;;;7.06;100.00
70546;BME280;58098;51.680;5.134;2023-03-05T12:04:52;101748.25;;;7.16;100.00
70546;BME280;58098;51.680;5.134;2023-03-05T12:07:35;101741.06;;;7.38;100.00
70546;BME280;58098;51.680;5.134;2023-03-05T12:10:02;101735.22;;;7.17;100.00
70546;BME280;58098;51.680;5.134;2023-03-05T12:12:52;101734.75;;;7.26;100.00
70546;BME280;58098;51.680;5.134;2023-03-05T12:18:42;101724.28;;;6.94;100.00
70546;BME280;58098;51.680;5.134;2023-03-05T12:23:53;101727.22;;;7.55;100.00
70546;BME280;58098;51.680;5.134;2023-03-05T12:29:49;101720.84;;;8.24;100.00
70546;BME280;58098;51.680;5.134;2023-03-05T12:34:49;101706.59;;;8.16;100.00
70546;BME280;58098;51.680;5.134;2023-03-05T12:47:40;101665.06;;;7.67;100.00
70546;BME280;58098;51.680;5.134;2023-03-05T12:52:57;101665.94;;;7.35;100.00
70546;BME280;58098;51.680;5.134;2023-03-05T12:55:23;101670.16;;;7.20;100.00
70546;BME280;58098;51.680;5.134;2023-03-05T12:58:18;101659.81;;;7.03;100.00
70546;BME280;58098;51.680;5.134;2023-03-05T13:00:49;101637.50;;;6.67;100.00
70546;BME280;58098;51.680;5.134;2023-03-05T13:03:18;101647.19;;;6.80;100.00
70546;BME280;58098;51.680;5.134;2023-03-05T13:05:54;101647.91;;;6.99;100.00
70546;BME280;58098;51.680;5.134;2023-03-05T13:08:34;101646.31;;;6.97;100.00
70546;BME280;58098;51.680;5.134;2023-03-05T13:11:03;101637.22;;;7.22;100.00
70546;BME280;58098;51.680;5.134;2023-03-05T13:13:40;101625.13;;;7.21;100.00
70546;BME280;58098;51.680;5.134;2023-03-05T13:16:17;101622.19;;;7.45;100.00
70546;BME280;58098;51.680;5.134;2023-03-05T13:18:46;101606.25;;;7.51;100.00
70546;BME280;58098;51.680;5.134;2023-03-05T13:21:14;101627.38;;;7.45;100.00
70546;BME280;58098;51.680;5.134;2023-03-05T13:23:51;101615.63;;;7.53;100.00
70546;BME280;58098;51.680;5.134;2023-03-05T13:26:27;101619.59;;;7.60;100.00
70546;BME280;58098;51.680;5.134;2023-03-05T13:29:14;101615.06;;;7.64;100.00
70546;BME280;58098;51.680;5.134;2023-03-05T13:31:46;101618.94;;;7.57;100.00
70546;BME280;58098;51.680;5.134;2023-03-05T13:34:16;101620.06;;;7.67;100.00
70546;BME280;58098;51.680;5.134;2023-03-05T13:36:49;101608.09;;;7.64;100.00
70546;BME280;58098;51.680;5.134;2023-03-05T13:39:22;101607.41;;;7.45;100.00
70546;BME280;58098;51.680;5.134;2023-03-05T13:42:04;101596.44;;;7.24;100.00
70546;BME280;58098;51.680;5.134;2023-03-05T13:44:32;101584.69;;;7.17;100.00
70546;BME280;58098;51.680;5.134;2023-03-05T13:47:19;101577.66;;;7.19;100.00
70546;BME280;58098;51.680;5.134;2023-03-05T13:49:44;101574.25;;;7.35;100.00
70546;BME280;58098;51.680;5.134;2023-03-05T13:52:11;101586.06;;;7.56;100.00
70546;BME280;58098;51.680;5.134;2023-03-05T13:54:39;101563.09;;;7.32;100.00
70546;BME280;58098;51.680;5.134;2023-03-05T13:57:07;101577.13;;;7.61;100.00
70546;BME280;58098;51.680;5.134;2023-03-05T13:59:52;101563.13;;;7.64;100.00
70546;BME280;58098;51.680;5.134;2023-03-05T14:02:18;101571.16;;;7.75;100.00
70546;BME280;58098;51.680;5.134;2023-03-05T14:04:45;101559.59;;;7.65;100.00
70546;BME280;58098;51.680;5.134;2023-03-05T14:07:24;101568.31;;;7.64;100.00
70546;BME280;58098;51.680;5.134;2023-03-05T14:09:52;101557.59;;;7.54;100.00
70546;BME280;58098;51.680;5.134;2023-03-05T14:12:37;101551.88;;;7.48;100.00
70546;BME280;58098;51.680;5.134;2023-03-05T14:15:29;101559.63;;;7.49;100.00
70546;BME280;58098;51.680;5.134;2023-03-05T14:20:35;101554.88;;;7.09;100.00
70546;BME280;58098;51.680;5.134;2023-03-05T14:26:29;101531.22;;;7.15;100.00